Time;durP1;ratioP1;P1;durP2;ratioP2;P2;SDS_P1;SDS_P2;PMS_P1;PMS_P2;Temp;Humidity;BMP_temperature;BMP_pressure;BME280_temperature;BME280_humidity;BME280_pressure;Samples;Min_cycle;Max_cycle;Signal;HPM_P1;HPM_P2
2023/11/24 00:02:24;;;;;;;13.00;7.75;;;6.40;99.90;;;;;;5040948;28;20041;-92
2023/11/24 00:04:50;;;;;;;16.88;8.93;;;6.40;99.90;;;;;;5027601;28;20022;-92
2023/11/24 00:07:17;;;;;;;13.93;9.25;;;6.40;99.90;;;;;;5021003;28;20472;-92
2023/11/24 00:09:44;;;;;;;13.65;7.47;;;6.40;99.90;;;;;;5007890;28;20080;-92
2023/11/24 00:12:10;;;;;;;13.40;9.10;;;6.50;99.90;;;;;;5042490;28;20395;-93
2023/11/24 00:14:36;;;;;;;12.63;8.68;;;6.50;99.90;;;;;;5042267;28;20026;-93
2023/11/24 00:17:01;;;;;;;15.05;8.65;;;6.50;99.90;;;;;;5041293;28;20037;-92
2023/11/24 00:19:27;;;;;;;13.68;9.68;;;6.50;99.90;;;;;;5031564;28;20085;-93
2023/11/24 00:21:53;;;;;;;15.77;9.07;;;6.50;99.90;;;;;;5020823;28;20096;-93
2023/11/24 00:24:18;;;;;;;13.25;8.77;;;6.60;99.90;;;;;;5038348;28;20025;-92
2023/11/24 00:26:44;;;;;;;16.33;9.32;;;6.50;99.90;;;;;;5041241;28;20080;-92
2023/11/24 00:29:10;;;;;;;13.18;8.88;;;6.50;99.90;;;;;;5023228;28;20025;-92
2023/11/24 00:31:36;;;;;;;13.32;7.78;;;6.60;99.90;;;;;;5019461;28;20030;-92
2023/11/24 00:34:02;;;;;;;12.68;8.50;;;6.60;99.90;;;;;;5033352;28;20029;-93
2023/11/24 00:36:28;;;;;;;13.40;8.48;;;6.60;99.90;;;;;;5039348;28;20499;-93
2023/11/24 00:38:54;;;;;;;12.70;7.53;;;6.60;99.90;;;;;;5027495;28;20026;-93
2023/11/24 00:41:20;;;;;;;16.85;9.00;;;6.70;99.90;;;;;;5037386;28;20588;-92
2023/11/24 00:43:49;;;;;;;12.73;8.07;;;6.70;99.90;;;;;;5016149;28;20030;-92
2023/11/24 00:46:17;;;;;;;11.50;7.07;;;6.70;99.90;;;;;;5010273;28;20025;-93
2023/11/24 00:48:42;;;;;;;;;;;6.70;99.90;;;;;;5014979;28;20053;-92
2023/11/24 00:51:08;;;;;;;11.90;7.10;;;6.70;99.90;;;;;;5039766;28;19920;-92
2023/11/24 00:53:34;;;;;;;12.95;7.13;;;6.80;99.90;;;;;;5040331;28;20025;-91
2023/11/24 00:56:03;;;;;;;10.50;6.75;;;6.80;99.90;;;;;;5014272;28;20221;-95
2023/11/24 00:58:29;;;;;;;12.60;7.43;;;6.80;99.90;;;;;;5024499;28;20030;-93
2023/11/24 01:00:55;;;;;;;10.80;6.50;;;6.80;99.90;;;;;;5022049;28;20547;-93
2023/11/24 01:03:21;;;;;;;13.60;7.45;;;6.90;99.90;;;;;;5021202;28;20025;-92
2023/11/24 01:05:49;;;;;;;11.60;6.55;;;6.90;99.90;;;;;;5025904;28;20046;-92
2023/11/24 01:08:15;;;;;;;12.25;7.28;;;6.90;99.90;;;;;;5021302;28;20042;-93
2023/11/24 01:10:41;;;;;;;9.63;6.30;;;7.00;99.90;;;;;;5019605;28;20037;-93
2023/11/24 01:13:07;;;;;;;9.00;5.53;;;7.00;99.90;;;;;;5020408;28;20022;-93
2023/11/24 01:15:32;;;;;;;8.23;5.40;;;7.10;99.90;;;;;;5021891;28;20032;-93
2023/11/24 01:17:59;;;;;;;9.73;6.13;;;7.10;99.90;;;;;;5041382;28;20028;-94
2023/11/24 01:20:25;;;;;;;9.02;5.22;;;7.10;99.90;;;;;;5039982;28;20104;-93
2023/11/24 01:22:50;;;;;;;10.32;6.63;;;7.20;99.90;;;;;;5041409;28;20065;-94
2023/11/24 01:25:17;;;;;;;8.70;5.55;;;7.20;99.90;;;;;;5022574;28;20037;-92
2023/11/24 01:27:42;;;;;;;11.60;6.30;;;7.20;99.90;;;;;;5029553;28;20037;-93
2023/11/24 01:30:09;;;;;;;9.13;5.05;;;7.30;99.90;;;;;;5021461;28;20030;-94
2023/11/24 01:32:35;;;;;;;11.07;5.97;;;7.20;99.90;;;;;;5030194;28;20105;-92
2023/11/24 01:35:01;;;;;;;7.63;5.28;;;7.20;99.90;;;;;;5030832;28;20021;-94
2023/11/24 01:37:27;;;;;;;9.30;6.05;;;7.30;99.90;;;;;;5031651;28;20025;-94
2023/11/24 01:39:53;;;;;;;10.27;6.40;;;7.30;99.90;;;;;;5020297;28;20500;-93
2023/11/24 01:42:19;;;;;;;10.07;6.13;;;7.30;99.90;;;;;;5024681;28;20092;-94
2023/11/24 01:44:45;;;;;;;7.03;5.20;;;7.40;99.90;;;;;;5029278;28;20033;-92
2023/11/24 01:47:11;;;;;;;8.88;4.82;;;7.40;99.90;;;;;;5031331;28;20022;-93
2023/11/24 01:49:38;;;;;;;7.00;5.13;;;7.40;99.90;;;;;;5038737;28;20029;-93
2023/11/24 01:52:05;;;;;;;8.60;5.00;;;7.50;99.90;;;;;;5008060;28;20029;-94
2023/11/24 01:54:36;;;;;;;6.72;4.72;;;7.40;99.90;;;;;;5021259;28;20044;-94
2023/11/24 01:57:06;;;;;;;7.53;4.85;;;7.50;99.90;;;;;;5028979;28;20633;-92
2023/11/24 01:59:41;;;;;;;11.32;4.95;;;7.40;99.90;;;;;;5020965;28;20065;-93
2023/11/24 02:02:06;;;;;;;;;;;7.50;99.90;;;;;;5041434;28;20025;-93
2023/11/24 02:04:32;;;;;;;6.45;4.18;;;7.40;99.90;;;;;;5040353;28;19916;-93
2023/11/24 02:07:00;;;;;;;8.50;5.32;;;7.40;99.90;;;;;;5022744;28;20057;-93
2023/11/24 02:09:28;;;;;;;9.05;5.10;;;7.40;99.90;;;;;;5040327;28;20017;-94
2023/11/24 02:11:53;;;;;;;9.25;4.70;;;7.30;99.90;;;;;;5008998;28;20025;-94
2023/11/24 02:14:19;;;;;;;8.57;4.80;;;7.30;99.90;;;;;;5028653;28;20017;-93
2023/11/24 02:16:45;;;;;;;9.02;6.25;;;7.30;99.90;;;;;;5018289;28;20097;-93
2023/11/24 02:19:11;;;;;;;7.55;4.78;;;7.30;99.90;;;;;;5040184;28;20024;-92
2023/11/24 02:21:37;;;;;;;8.63;4.93;;;7.30;99.90;;;;;;5020268;28;20030;-93
2023/11/24 02:24:05;;;;;;;9.65;5.28;;;7.30;99.90;;;;;;5021056;28;20053;-93
2023/11/24 02:26:31;;;;;;;10.68;4.78;;;7.30;99.90;;;;;;5020236;28;20052;-93
2023/11/24 02:28:57;;;;;;;8.68;5.55;;;7.20;99.90;;;;;;5034688;28;20084;-93
2023/11/24 02:31:23;;;;;;;11.02;4.93;;;7.20;99.90;;;;;;5006392;28;20033;-93
2023/11/24 02:33:49;;;;;;;7.20;4.45;;;7.30;99.90;;;;;;5028200;28;20040;-93
2023/11/24 02:36:20;;;;;;;6.65;4.18;;;7.20;99.90;;;;;;5031323;28;20083;-92
2023/11/24 02:38:49;;;;;;;8.38;4.85;;;7.20;99.90;;;;;;5024164;28;20020;-93
2023/11/24 02:41:16;;;;;;;6.32;4.90;;;7.20;99.90;;;;;;5031957;28;20061;-92
2023/11/24 02:43:42;;;;;;;7.00;4.03;;;7.20;99.90;;;;;;5007154;28;20137;-93
2023/11/24 02:46:15;;;;;;;8.90;5.65;;;7.20;99.90;;;;;;5008106;28;20049;-92
2023/11/24 02:48:44;;;;;;;8.93;4.85;;;7.10;99.90;;;;;;5037582;28;20022;-93
2023/11/24 02:51:10;;;;;;;9.77;5.15;;;7.10;99.90;;;;;;5037686;28;20029;-93
2023/11/24 02:53:39;;;;;;;7.85;6.15;;;7.00;99.90;;;;;;5038269;28;20021;-94
2023/11/24 02:56:06;;;;;;;8.43;5.65;;;6.90;99.90;;;;;;5022101;28;20064;-94
2023/11/24 02:58:32;;;;;;;9.63;5.60;;;6.90;99.90;;;;;;5037257;28;20064;-92
2023/11/24 03:00:58;;;;;;;8.32;6.20;;;6.90;99.90;;;;;;5038328;28;20033;-93
2023/11/24 03:03:26;;;;;;;10.43;5.57;;;6.90;99.90;;;;;;5039561;28;20029;-92
2023/11/24 03:05:52;;;;;;;11.75;7.38;;;6.90;99.90;;;;;;5039038;28;20029;-92
2023/11/24 03:08:19;;;;;;;9.98;6.53;;;6.90;99.90;;;;;;5021355;28;20026;-93
2023/11/24 03:10:45;;;;;;;15.23;8.82;;;6.80;99.90;;;;;;5039351;28;20085;-93
2023/11/24 03:13:11;;;;;;;7.60;5.70;;;6.90;99.90;;;;;;5039334;28;20036;-93
2023/11/24 03:15:36;;;;;;;12.32;6.55;;;6.90;99.90;;;;;;5028597;28;20045;-93
2023/11/24 03:18:02;;;;;;;7.90;6.15;;;6.90;99.90;;;;;;5018480;28;20026;-91
2023/11/24 03:20:28;;;;;;;10.38;6.53;;;6.80;99.90;;;;;;5018550;28;20023;-92
2023/11/24 03:22:55;;;;;;;10.98;6.68;;;6.90;99.90;;;;;;5010350;28;20025;-92
2023/11/24 03:25:20;;;;;;;9.02;6.82;;;6.90;99.90;;;;;;5039979;28;20109;-95
2023/11/24 03:27:48;;;;;;;10.30;6.10;;;6.80;99.90;;;;;;5041525;28;20018;-93
2023/11/24 03:30:14;;;;;;;10.02;6.57;;;6.80;99.90;;;;;;5044075;28;20088;-93
2023/11/24 03:32:39;;;;;;;13.95;7.38;;;6.80;99.90;;;;;;5025511;28;20060;-94
2023/11/24 03:35:06;;;;;;;9.68;7.25;;;6.80;99.90;;;;;;5025553;28;20452;-92
2023/11/24 03:37:32;;;;;;;9.02;6.72;;;6.80;99.90;;;;;;5042681;28;20048;-92
2023/11/24 03:39:58;;;;;;;11.27;7.95;;;6.80;99.90;;;;;;5042423;28;20025;-92
2023/11/24 03:42:24;;;;;;;10.80;6.43;;;6.80;99.90;;;;;;5041358;28;20037;-92
2023/11/24 03:44:49;;;;;;;10.85;6.95;;;6.80;99.90;;;;;;5042270;28;20088;-93
2023/11/24 03:47:16;;;;;;;11.13;6.88;;;6.80;99.90;;;;;;5041901;28;20079;-92
2023/11/24 03:49:42;;;;;;;9.85;6.25;;;6.90;99.90;;;;;;5041355;28;20026;-93
2023/11/24 03:52:07;;;;;;;10.23;6.68;;;6.80;99.90;;;;;;5042502;28;20060;-93
2023/11/24 03:54:33;;;;;;;13.57;8.07;;;6.80;99.90;;;;;;5043599;28;20480;-93
2023/11/24 03:56:59;;;;;;;10.18;6.72;;;6.90;99.90;;;;;;5042545;28;20037;-91
2023/11/24 03:59:30;;;;;;;10.88;6.65;;;6.90;99.90;;;;;;5043180;28;20097;-93
2023/11/24 04:01:56;;;;;;;12.20;6.47;;;6.90;99.90;;;;;;5039061;28;20033;-92
2023/11/24 04:04:22;;;;;;;10.18;7.00;;;6.90;99.90;;;;;;5027534;28;20045;-92
2023/11/24 04:06:50;;;;;;;9.73;6.03;;;7.00;99.90;;;;;;5024077;28;20037;-92
2023/11/24 04:09:16;;;;;;;10.20;6.38;;;6.90;99.90;;;;;;5022382;28;20018;-93
2023/11/24 04:11:42;;;;;;;8.25;5.90;;;7.00;99.90;;;;;;5028123;28;20057;-92
2023/11/24 04:14:08;;;;;;;8.15;5.47;;;7.00;99.90;;;;;;5045016;28;20036;-92
2023/11/24 04:16:36;;;;;;;11.05;6.10;;;7.00;99.90;;;;;;5035963;28;20078;-94
2023/11/24 04:19:02;;;;;;;11.73;6.63;;;7.10;99.90;;;;;;5035436;28;20101;-93
2023/11/24 04:21:28;;;;;;;9.38;5.95;;;7.10;99.90;;;;;;5042264;28;20032;-93
2023/11/24 04:23:53;;;;;;;10.48;5.80;;;7.10;99.90;;;;;;5043190;28;20026;-93
2023/11/24 04:26:19;;;;;;;9.38;5.50;;;7.10;99.90;;;;;;5026135;28;20034;-92
2023/11/24 04:28:45;;;;;;;8.43;6.13;;;7.10;99.90;;;;;;5043728;28;20025;-92
2023/11/24 04:31:10;;;;;;;10.13;6.63;;;7.10;99.90;;;;;;5042445;28;20033;-92
2023/11/24 04:33:36;;;;;;;10.23;6.15;;;7.10;99.90;;;;;;5042298;28;20029;-93
2023/11/24 04:36:04;;;;;;;8.05;5.07;;;7.10;99.90;;;;;;5043959;28;20404;-93
2023/11/24 04:38:32;;;;;;;8.07;4.97;;;7.20;99.90;;;;;;5019422;28;20045;-90
2023/11/24 04:40:58;;;;;;;5.53;4.47;;;7.20;99.90;;;;;;5020340;28;20046;-94
2023/11/24 04:43:24;;;;;;;10.00;4.53;;;7.20;99.90;;;;;;5023311;28;20100;-90
2023/11/24 04:45:50;;;;;;;7.97;5.20;;;7.20;99.90;;;;;;5020629;28;20136;-90
2023/11/24 04:48:16;;;;;;;9.90;5.97;;;7.20;99.90;;;;;;5024752;28;20052;-93
2023/11/24 04:50:42;;;;;;;6.55;5.05;;;7.20;99.90;;;;;;5032571;28;20033;-95
2023/11/24 04:53:08;;;;;;;7.55;4.65;;;7.20;99.90;;;;;;5032560;28;20056;-94
2023/11/24 04:55:34;;;;;;;8.32;4.95;;;7.20;99.90;;;;;;5026501;28;20030;-93
2023/11/24 04:57:59;;;;;;;6.70;3.97;;;7.10;99.90;;;;;;5026534;28;20022;-92
2023/11/24 05:00:25;;;;;;;7.43;5.25;;;7.10;99.90;;;;;;5039535;28;20111;-93
2023/11/24 05:02:51;;;;;;;7.07;4.63;;;7.10;99.90;;;;;;5043588;28;20044;-93
2023/11/24 05:05:19;;;;;;;7.50;4.65;;;7.10;99.90;;;;;;5027801;28;20060;-92
2023/11/24 05:07:45;;;;;;;7.45;4.65;;;7.10;99.90;;;;;;5023090;28;20411;-93
2023/11/24 05:10:11;;;;;;;8.38;5.13;;;7.10;99.90;;;;;;5013428;28;20065;-93
2023/11/24 05:12:37;;;;;;;7.95;5.60;;;7.10;99.90;;;;;;5040946;28;20055;-93
2023/11/24 05:15:08;;;;;;;6.05;4.78;;;7.10;99.90;;;;;;5028681;28;20037;-93
2023/11/24 05:17:34;;;;;;;6.50;4.05;;;7.20;99.90;;;;;;5008284;28;20022;-93
2023/11/24 05:20:00;;;;;;;6.35;3.83;;;7.10;99.90;;;;;;5042039;28;20037;-92
2023/11/24 05:22:26;;;;;;;7.38;4.72;;;7.10;99.90;;;;;;5042023;28;20161;-92
2023/11/24 05:24:52;;;;;;;9.50;5.57;;;7.10;99.90;;;;;;5041404;28;20053;-92
2023/11/24 05:27:17;;;;;;;8.07;5.40;;;7.10;99.90;;;;;;5041176;28;20025;-92
2023/11/24 05:29:43;;;;;;;9.52;6.15;;;7.10;99.90;;;;;;5041773;28;20029;-94
2023/11/24 05:32:09;;;;;;;8.50;6.40;;;7.10;99.90;;;;;;5038849;28;20025;-92
2023/11/24 05:34:35;;;;;;;9.13;6.03;;;7.10;99.90;;;;;;5029467;28;20054;-93
2023/11/24 05:37:05;;;;;;;7.97;5.68;;;7.10;99.90;;;;;;5018682;28;20022;-92
2023/11/24 05:39:31;;;;;;;8.60;5.07;;;7.10;99.90;;;;;;5018152;28;20025;-93
2023/11/24 05:41:58;;;;;;;7.63;5.07;;;7.00;99.90;;;;;;5019339;28;20086;-92
2023/11/24 05:44:24;;;;;;;6.90;4.90;;;7.00;99.90;;;;;;5010549;28;20033;-93
2023/11/24 05:46:50;;;;;;;5.75;3.25;;;7.10;99.90;;;;;;5035906;28;20025;-93
2023/11/24 05:49:21;;;;;;;5.15;3.30;;;7.10;99.90;;;;;;5043076;28;20032;-94
2023/11/24 05:51:47;;;;;;;5.70;3.38;;;7.10;99.90;;;;;;5040994;28;20189;-92
2023/11/24 05:54:13;;;;;;;6.75;4.07;;;7.10;99.90;;;;;;5041598;28;20627;-92
2023/11/24 05:56:42;;;;;;;7.22;4.35;;;7.10;99.90;;;;;;5041483;28;20025;-93
2023/11/24 05:59:07;;;;;;;5.80;3.70;;;7.10;99.90;;;;;;5022767;28;20660;-93
2023/11/24 06:01:33;;;;;;;8.82;4.15;;;7.10;99.90;;;;;;5039642;28;20033;-92
2023/11/24 06:03:59;;;;;;;6.35;3.92;;;7.10;99.90;;;;;;5043024;28;20034;-91
2023/11/24 06:06:24;;;;;;;6.50;3.70;;;7.10;99.90;;;;;;5032877;28;20380;-92
2023/11/24 06:08:50;;;;;;;7.45;3.47;;;7.10;99.90;;;;;;5036668;28;20102;-91
2023/11/24 06:11:17;;;;;;;5.35;3.30;;;7.20;99.90;;;;;;5015402;28;20033;-93
2023/11/24 06:13:45;;;;;;;5.15;3.67;;;7.20;99.90;;;;;;5023862;28;20022;-93
2023/11/24 06:16:11;;;;;;;5.40;3.88;;;7.30;99.90;;;;;;5023730;28;20025;-91
2023/11/24 06:18:41;;;;;;;5.60;4.00;;;7.30;99.90;;;;;;5043036;28;20126;-92
2023/11/24 06:21:11;;;;;;;6.50;4.35;;;7.30;99.90;;;;;;5041345;28;20029;-92
2023/11/24 06:23:38;;;;;;;5.10;3.10;;;7.30;99.90;;;;;;5041160;28;20060;-92
2023/11/24 06:26:04;;;;;;;5.03;3.55;;;7.30;99.90;;;;;;5039420;28;20034;-92
2023/11/24 06:28:29;;;;;;;6.55;3.60;;;7.20;99.90;;;;;;5039034;28;20033;-91
2023/11/24 06:30:55;;;;;;;4.43;3.35;;;7.30;99.90;;;;;;5019360;28;20030;-90
2023/11/24 06:33:21;;;;;;;5.13;4.32;;;7.30;99.90;;;;;;5037304;28;20081;-91
2023/11/24 06:35:47;;;;;;;5.43;3.22;;;7.30;99.90;;;;;;5036731;28;20475;-91
2023/11/24 06:38:13;;;;;;;4.30;3.13;;;7.20;99.90;;;;;;5018631;28;20028;-91
2023/11/24 06:40:39;;;;;;;3.97;2.72;;;7.30;99.90;;;;;;5036637;28;20083;-91
2023/11/24 06:43:05;;;;;;;2.55;1.75;;;7.30;99.90;;;;;;5034522;28;20021;-90
2023/11/24 06:45:31;;;;;;;5.53;2.35;;;7.30;99.90;;;;;;5006403;28;20032;-90
2023/11/24 06:47:56;;;;;;;5.18;2.33;;;7.30;99.90;;;;;;5027719;28;20018;-92
2023/11/24 06:50:22;;;;;;;2.83;2.55;;;7.30;99.90;;;;;;5038866;28;20034;-94
2023/11/24 06:52:48;;;;;;;3.15;1.75;;;7.30;99.90;;;;;;5029092;28;20390;-91
2023/11/24 06:55:13;;;;;;;4.80;2.30;;;7.30;99.90;;;;;;5023395;28;20508;-92
2023/11/24 06:57:40;;;;;;;4.03;2.50;;;7.40;99.90;;;;;;5023152;28;20105;-93
2023/11/24 07:00:07;;;;;;;2.75;2.13;;;7.30;99.90;;;;;;5020304;28;20026;-93
2023/11/24 07:02:42;;;;;;;3.60;1.95;;;7.30;99.90;;;;;;5029813;28;20080;-93
2023/11/24 07:05:25;;;;;;;5.07;3.05;;;7.30;99.90;;;;;;5025916;28;20087;-93
2023/11/24 07:07:51;;;;;;;4.57;2.70;;;7.30;99.90;;;;;;5017712;28;20186;-94
2023/11/24 07:10:17;;;;;;;5.75;2.80;;;7.30;99.90;;;;;;5020734;28;20295;-92
2023/11/24 07:13:08;;;;;;;3.17;2.13;;;7.30;99.90;;;;;;5010286;28;20254;-92
2023/11/24 07:15:57;;;;;;;5.30;2.50;;;7.30;99.90;;;;;;5022044;28;20255;-93
2023/11/24 07:18:29;;;;;;;5.38;2.97;;;7.30;99.90;;;;;;5000535;28;20033;-93
2023/11/24 07:21:00;;;;;;;5.68;2.17;;;7.30;99.90;;;;;;4996207;28;20029;-93
2023/11/24 07:23:26;;;;;;;4.53;2.33;;;7.20;99.90;;;;;;5016377;23;20093;-94
2023/11/24 07:25:52;;;;;;;4.82;2.38;;;7.20;99.90;;;;;;5004861;28;20437;-93
2023/11/24 07:28:17;;;;;;;4.78;2.53;;;7.20;99.90;;;;;;4988898;28;20489;-92
2023/11/24 07:30:45;;;;;;;5.45;2.50;;;7.20;99.90;;;;;;5006093;28;20026;-94
2023/11/24 07:33:11;;;;;;;;;;;7.30;99.90;;;;;;5010408;28;20037;-91
2023/11/24 07:35:43;;;;;;;5.30;2.17;;;7.30;99.90;;;;;;5012334;28;19909;-92
2023/11/24 07:38:10;;;;;;;4.60;1.85;;;7.30;99.90;;;;;;4990048;28;20022;-92
2023/11/24 07:40:37;;;;;;;6.18;3.08;;;7.30;99.90;;;;;;5008475;28;20022;-92
2023/11/24 07:43:03;;;;;;;5.35;2.72;;;7.30;99.90;;;;;;5002411;28;20033;-91
2023/11/24 07:45:29;;;;;;;6.70;3.25;;;7.30;99.90;;;;;;5009929;28;20018;-91
2023/11/24 07:47:54;;;;;;;4.75;3.08;;;7.30;99.90;;;;;;4986300;28;20026;-92
2023/11/24 07:50:20;;;;;;;6.13;3.35;;;7.20;99.90;;;;;;5005262;28;20469;-92
2023/11/24 07:52:46;;;;;;;6.40;2.78;;;7.20;99.90;;;;;;5003406;28;20026;-91
2023/11/24 07:55:15;;;;;;;4.65;2.53;;;7.20;99.90;;;;;;4986561;28;20094;-92
2023/11/24 07:57:41;;;;;;;6.07;3.17;;;7.20;99.90;;;;;;4984649;28;20081;-92
2023/11/24 08:00:12;;;;;;;5.97;2.95;;;7.10;99.90;;;;;;5005350;28;20163;-91
2023/11/24 08:02:42;;;;;;;6.30;3.20;;;7.10;99.90;;;;;;4989497;28;20049;-92
2023/11/24 08:05:11;;;;;;;7.22;3.00;;;7.10;99.90;;;;;;4985430;28;20087;-93
2023/11/24 08:07:38;;;;;;;5.00;3.05;;;7.10;99.90;;;;;;5009215;28;20033;-93
2023/11/24 08:10:04;;;;;;;6.22;2.67;;;7.10;99.90;;;;;;4989126;28;20026;-93
2023/11/24 08:12:30;;;;;;;4.68;3.25;;;7.10;99.90;;;;;;4990388;28;20093;-93
2023/11/24 08:14:58;;;;;;;5.18;2.67;;;7.10;99.90;;;;;;5000255;28;20034;-93
2023/11/24 08:17:23;;;;;;;;;;;7.20;99.90;;;;;;5006756;28;20026;-92
2023/11/24 08:19:49;;;;;;;7.53;2.97;;;7.20;99.90;;;;;;5010441;28;19929;-93
2023/11/24 08:22:18;;;;;;;8.48;3.15;;;7.10;99.90;;;;;;5014198;28;20070;-93
2023/11/24 08:24:46;;;;;;;8.90;3.47;;;7.20;99.90;;;;;;5013531;28;20519;-93
2023/11/24 08:27:12;;;;;;;9.55;3.38;;;7.30;99.90;;;;;;4986952;28;20501;-91
2023/11/24 08:29:38;;;;;;;8.60;3.20;;;7.30;99.90;;;;;;4984875;28;20099;-92
2023/11/24 08:32:04;;;;;;;14.43;5.57;;;7.30;99.90;;;;;;5008127;28;20489;-92
2023/11/24 08:34:30;;;;;;;11.23;4.55;;;7.40;99.90;;;;;;5004246;28;20023;-92
2023/11/24 08:36:55;;;;;;;8.15;2.92;;;7.50;99.90;;;;;;5002455;28;20049;-92
2023/11/24 08:39:21;;;;;;;8.15;3.85;;;7.50;99.90;;;;;;5000645;28;20057;-92
2023/11/24 08:41:48;;;;;;;9.18;3.60;;;7.50;99.90;;;;;;5005129;28;20050;-92
2023/11/24 08:44:14;;;;;;;11.43;3.80;;;7.50;99.90;;;;;;4985254;28;20026;-91
2023/11/24 08:46:42;;;;;;;11.43;3.58;;;7.50;99.90;;;;;;5002399;28;20039;-92
2023/11/24 08:49:10;;;;;;;5.68;3.30;;;7.60;99.90;;;;;;5002870;28;20032;-92
2023/11/24 08:51:36;;;;;;;;;;;7.60;99.90;;;;;;4984578;28;20049;-91
2023/11/24 08:54:03;;;;;;;10.50;3.50;;;7.60;99.90;;;;;;4984626;28;19973;-92
2023/11/24 08:56:32;;;;;;;12.05;3.03;;;7.70;99.90;;;;;;5002179;28;20018;-92
2023/11/24 08:58:58;;;;;;;8.80;3.95;;;7.70;99.90;;;;;;4985409;28;20031;-92
2023/11/24 09:01:28;;;;;;;6.63;3.00;;;7.70;99.90;;;;;;5018797;28;20037;-92
2023/11/24 09:03:59;;;;;;;8.00;5.25;;;7.60;99.90;;;;;;5005208;28;20026;-91
2023/11/24 09:06:31;;;;;;;8.90;2.92;;;7.60;99.90;;;;;;5021604;28;20476;-91
2023/11/24 09:09:01;;;;;;;12.63;4.47;;;7.60;99.90;;;;;;5021911;28;20034;-90
2023/11/24 09:11:27;;;;;;;9.07;3.88;;;7.60;99.90;;;;;;4985610;28;20030;-91
2023/11/24 09:13:52;;;;;;;11.60;3.30;;;7.70;99.90;;;;;;4966102;28;20031;-92
2023/11/24 09:16:20;;;;;;;11.32;3.42;;;7.70;99.90;;;;;;4983587;28;20022;-92
2023/11/24 09:18:47;;;;;;;17.80;4.38;;;7.80;99.90;;;;;;4985115;28;20046;-93
2023/11/24 09:21:12;;;;;;;10.02;3.67;;;7.90;99.90;;;;;;4984925;28;20121;-93
2023/11/24 09:23:39;;;;;;;10.90;4.75;;;7.90;99.90;;;;;;5000595;28;20084;-92
2023/11/24 09:26:12;;;;;;;10.93;4.80;;;7.80;99.90;;;;;;4985458;28;20030;-91
2023/11/24 09:28:52;;;;;;;14.82;5.07;;;7.90;99.90;;;;;;5006160;28;20030;-91
2023/11/24 09:31:18;;;;;;;12.15;4.40;;;7.90;99.90;;;;;;4984495;28;20042;-92
2023/11/24 09:33:45;;;;;;;8.48;4.63;;;7.90;99.90;;;;;;4984293;28;20025;-91
2023/11/24 09:36:14;;;;;;;7.78;3.40;;;8.00;99.90;;;;;;4983390;28;20029;-91
2023/11/24 09:38:40;;;;;;;12.52;4.53;;;8.00;99.90;;;;;;5001479;28;20162;-91
2023/11/24 09:41:13;;;;;;;11.60;4.15;;;8.00;99.90;;;;;;5000668;28;20058;-92
2023/11/24 09:43:39;;;;;;;11.57;3.95;;;8.00;99.90;;;;;;4983223;28;20042;-92
2023/11/24 09:46:10;;;;;;;10.10;3.78;;;8.00;99.90;;;;;;5000775;28;20049;-91
2023/11/24 09:48:44;;;;;;;12.75;3.97;;;8.10;99.90;;;;;;4984781;28;20030;-92
2023/11/24 09:51:16;;;;;;;9.82;3.58;;;8.10;99.90;;;;;;4984553;28;20026;-92
2023/11/24 09:53:46;;;;;;;9.85;2.75;;;8.10;99.90;;;;;;4984407;28;20034;-90
2023/11/24 09:56:48;;;;;;;11.90;3.03;;;8.10;99.90;;;;;;4986318;28;20090;-91
2023/11/24 10:03:00;;;;;;;8.40;4.50;;;8.10;99.90;;;;;;5002783;28;20050;-92
2023/11/24 10:05:41;;;;;;;10.05;4.53;;;8.20;99.90;;;;;;4985972;28;20030;-92
2023/11/24 10:08:11;;;;;;;8.82;3.28;;;8.10;99.90;;;;;;4985171;28;20038;-92
2023/11/24 10:14:06;;;;;;;;;;;8.20;99.90;;;;;;5177894;22;20062;-94
2023/11/24 10:16:40;;;;;;;10.73;2.70;;;8.30;99.50;;;;;;5019666;28;19909;-94
2023/11/24 10:19:14;;;;;;;;;;;8.30;99.90;;;;;;5017400;28;20026;-94
2023/11/24 10:21:47;;;;;;;8.35;3.35;;;8.30;99.90;;;;;;5012114;28;19912;-96
2023/11/24 10:24:13;;;;;;;11.95;3.45;;;8.40;99.90;;;;;;5013307;28;20022;-94
2023/11/24 10:26:45;;;;;;;10.75;4.05;;;8.30;99.90;;;;;;5029994;28;20060;-95
2023/11/24 10:29:14;;;;;;;10.77;4.18;;;8.20;99.90;;;;;;5012805;28;20022;-94
2023/11/24 10:31:40;;;;;;;8.35;3.65;;;8.20;99.90;;;;;;5012697;28;20030;-96
2023/11/24 10:34:06;;;;;;;10.23;3.67;;;8.20;99.90;;;;;;5034706;28;20028;-95
2023/11/24 10:39:16;;;;;;;10.68;3.38;;;8.20;98.70;;;;;;5340197;22;20056;-95
2023/11/24 10:41:43;;;;;;;8.52;3.33;;;8.20;99.30;;;;;;5014503;28;20033;-95
2023/11/24 10:44:21;;;;;;;15.40;4.47;;;8.10;98.80;;;;;;5032680;28;20022;-95
2023/11/24 10:47:00;;;;;;;8.05;3.30;;;8.10;97.00;;;;;;5010502;28;20033;-96
2023/11/24 10:49:52;;;;;;;8.85;3.78;;;8.10;97.30;;;;;;5029752;28;20029;-96
2023/11/24 10:53:00;;;;;;;12.57;3.20;;;8.10;99.60;;;;;;5029709;28;20050;-95
2023/11/24 10:55:30;;;;;;;8.27;3.30;;;8.10;98.80;;;;;;5029018;28;20025;-95
2023/11/24 10:57:57;;;;;;;9.77;2.97;;;8.00;96.60;;;;;;5011831;28;20022;-96
2023/11/24 11:00:23;;;;;;;7.60;3.55;;;8.00;96.50;;;;;;5008994;28;20026;-96
2023/11/24 11:02:54;;;;;;;10.68;4.65;;;7.90;94.80;;;;;;5018753;28;20097;-96
2023/11/24 11:05:38;;;;;;;11.48;4.80;;;7.90;98.70;;;;;;5023604;28;20037;-94
2023/11/24 11:08:13;;;;;;;9.82;4.05;;;7.90;97.60;;;;;;5134160;22;20096;-96
2023/11/24 11:10:45;;;;;;;13.40;4.78;;;8.00;96.90;;;;;;5094293;22;20051;-96
2023/11/24 11:13:17;;;;;;;15.30;6.10;;;8.00;97.70;;;;;;5020599;28;20014;-95
2023/11/24 11:15:50;;;;;;;9.73;4.65;;;8.00;96.30;;;;;;5029410;28;20014;-95
2023/11/24 11:26:04;;;;;;;14.10;3.88;;;8.00;96.50;;;;;;6131703;22;20016;-88
2023/11/24 11:28:34;;;;;;;12.18;4.13;;;8.00;99.70;;;;;;4982285;28;20034;-90
2023/11/24 11:31:23;;;;;;;12.38;2.95;;;8.00;96.30;;;;;;5000582;28;20030;-91
2023/11/24 11:33:49;;;;;;;13.00;4.65;;;8.00;94.90;;;;;;5000535;28;20042;-91
2023/11/24 11:36:15;;;;;;;9.77;4.85;;;7.90;96.30;;;;;;5015564;28;20503;-91
2023/11/24 11:38:45;;;;;;;9.77;3.38;;;7.80;99.50;;;;;;4999853;28;20027;-91
2023/11/24 11:41:11;;;;;;;15.15;4.85;;;7.70;99.90;;;;;;4998464;28;20018;-89
2023/11/24 11:43:53;;;;;;;15.43;6.00;;;7.60;99.90;;;;;;5000809;28;20050;-90
2023/11/24 11:46:19;;;;;;;8.77;3.05;;;7.60;99.90;;;;;;5000847;28;20030;-91
2023/11/24 11:48:46;;;;;;;11.00;4.90;;;7.60;99.90;;;;;;4984418;28;20051;-91
2023/11/24 11:51:16;;;;;;;12.00;6.10;;;7.50;99.90;;;;;;4991995;28;20113;-90
2023/11/24 11:53:42;;;;;;;12.48;4.15;;;7.50;99.90;;;;;;5007627;28;20396;-91
2023/11/24 11:56:10;;;;;;;9.75;4.50;;;7.50;99.90;;;;;;5002186;28;20026;-91
2023/11/24 11:58:45;;;;;;;;;;;7.50;99.90;;;;;;5004111;28;20015;-91
2023/11/24 12:01:15;;;;;;;6.45;2.88;;;7.50;99.90;;;;;;5004306;28;20369;-91
2023/11/24 12:03:40;;;;;;;5.80;2.38;;;7.40;99.90;;;;;;4983575;28;20031;-92
2023/11/24 12:06:07;;;;;;;7.40;3.03;;;7.40;99.90;;;;;;4983762;28;20058;-91
2023/11/24 12:08:43;;;;;;;4.30;2.97;;;7.40;99.90;;;;;;4983430;28;20027;-92
2023/11/24 12:11:10;;;;;;;7.18;3.03;;;7.20;99.90;;;;;;4989599;28;20101;-91
2023/11/24 12:13:50;;;;;;;6.15;2.95;;;6.80;99.90;;;;;;5003358;28;20056;-90
2023/11/24 12:16:26;;;;;;;6.82;4.72;;;6.50;99.90;;;;;;5005286;28;20101;-91
2023/11/24 12:18:52;;;;;;;6.55;4.00;;;6.30;99.90;;;;;;4995750;28;20034;-90
2023/11/24 12:21:18;;;;;;;6.78;3.03;;;6.20;99.90;;;;;;4998080;28;20026;-94
2023/11/24 12:23:44;;;;;;;4.57;1.88;;;6.00;99.90;;;;;;5001964;28;20026;-90
2023/11/24 12:26:11;;;;;;;3.90;3.10;;;6.20;98.80;;;;;;5002763;28;20527;-92
2023/11/24 12:28:40;;;;;;;7.28;2.65;;;6.30;99.90;;;;;;5000777;28;20030;-91
2023/11/24 12:31:06;;;;;;;2.72;2.42;;;6.30;99.90;;;;;;4988630;28;20034;-93
2023/11/24 12:33:35;;;;;;;5.63;2.65;;;6.40;99.90;;;;;;5001483;28;20046;-91
2023/11/24 12:36:00;;;;;;;8.93;2.45;;;6.50;99.90;;;;;;5000985;28;20022;-91
2023/11/24 12:38:26;;;;;;;5.35;2.72;;;6.50;99.90;;;;;;5001356;28;20034;-92
2023/11/24 12:40:55;;;;;;;6.22;2.33;;;6.60;99.90;;;;;;4994216;28;20114;-92
2023/11/24 12:43:23;;;;;;;7.57;3.10;;;6.60;99.90;;;;;;5006696;28;20030;-91
2023/11/24 12:45:52;;;;;;;5.25;3.35;;;6.70;99.90;;;;;;5001711;28;20019;-93
2023/11/24 12:48:39;;;;;;;9.15;5.47;;;6.70;99.90;;;;;;4992074;28;20057;-93
2023/11/24 12:51:05;;;;;;;;;;;6.70;99.90;;;;;;5009827;28;20046;-91
2023/11/24 12:53:34;;;;;;;9.88;3.10;;;6.70;99.90;;;;;;5004925;28;19906;-92
2023/11/24 12:56:03;;;;;;;7.38;3.88;;;6.70;99.90;;;;;;5004158;28;20026;-92
2023/11/24 12:58:29;;;;;;;8.05;3.17;;;6.70;99.90;;;;;;5002545;28;20050;-93
2023/11/24 13:00:56;;;;;;;8.48;2.83;;;6.70;99.90;;;;;;5001803;28;20034;-91
2023/11/24 13:03:22;;;;;;;7.55;3.17;;;6.80;99.90;;;;;;4993842;28;20097;-95
2023/11/24 13:05:51;;;;;;;8.10;3.85;;;6.90;99.90;;;;;;5001013;28;20054;-93
2023/11/24 13:08:17;;;;;;;8.30;3.88;;;6.90;99.90;;;;;;5001184;28;20033;-92
2023/11/24 13:10:45;;;;;;;9.20;2.97;;;6.90;99.90;;;;;;5002897;28;20027;-92
2023/11/24 13:13:11;;;;;;;12.63;3.90;;;7.00;99.90;;;;;;4999993;28;20049;-91
2023/11/24 13:15:38;;;;;;;9.38;2.88;;;7.00;99.90;;;;;;5002350;28;20373;-92
2023/11/24 13:18:07;;;;;;;7.65;2.88;;;7.00;99.90;;;;;;5003969;28;20500;-91